sensor_id;sensor_type;location;lat;lon;timestamp;P1;durP1;ratioP1;P2;durP2;ratioP2
25780;SDS011;13626;48.128;11.628;2022-10-31T00:00:57;12.48;;;5.30;;
25780;SDS011;13626;48.128;11.628;2022-10-31T00:03:24;11.40;;;5.30;;
25780;SDS011;13626;48.128;11.628;2022-10-31T00:05:52;10.25;;;5.00;;
25780;SDS011;13626;48.128;11.628;2022-10-31T00:08:20;10.35;;;5.50;;
25780;SDS011;13626;48.128;11.628;2022-10-31T00:10:47;15.85;;;5.88;;
25780;SDS011;13626;48.128;11.628;2022-10-31T00:13:14;11.20;;;6.10;;
25780;SDS011;13626;48.128;11.628;2022-10-31T00:15:41;9.25;;;5.13;;
25780;SDS011;13626;48.128;11.628;2022-10-31T00:18:09;12.30;;;5.63;;
25780;SDS011;13626;48.128;11.628;2022-10-31T00:20:36;11.35;;;5.63;;
25780;SDS011;13626;48.128;11.628;2022-10-31T00:23:04;10.18;;;5.30;;
25780;SDS011;13626;48.128;11.628;2022-10-31T00:25:38;12.02;;;5.10;;
25780;SDS011;13626;48.128;11.628;2022-10-31T00:28:06;9.27;;;5.07;;
25780;SDS011;13626;48.128;11.628;2022-10-31T00:30:33;11.30;;;5.22;;
25780;SDS011;13626;48.128;11.628;2022-10-31T00:33:02;11.43;;;5.60;;
25780;SDS011;13626;48.128;11.628;2022-10-31T00:35:29;11.63;;;4.82;;
25780;SDS011;13626;48.128;11.628;2022-10-31T00:37:56;9.32;;;4.65;;
25780;SDS011;13626;48.128;11.628;2022-10-31T00:40:24;8.63;;;4.82;;
25780;SDS011;13626;48.128;11.628;2022-10-31T00:42:51;9.77;;;4.53;;
25780;SDS011;13626;48.128;11.628;2022-10-31T00:45:18;14.23;;;5.28;;
25780;SDS011;13626;48.128;11.628;2022-10-31T00:47:45;12.00;;;5.07;;
25780;SDS011;13626;48.128;11.628;2022-10-31T00:50:12;10.52;;;4.57;;
25780;SDS011;13626;48.128;11.628;2022-10-31T00:52:39;8.88;;;4.88;;
25780;SDS011;13626;48.128;11.628;2022-10-31T00:55:06;12.00;;;4.30;;
25780;SDS011;13626;48.128;11.628;2022-10-31T00:57:34;11.23;;;4.35;;
25780;SDS011;13626;48.128;11.628;2022-10-31T01:00:01;9.40;;;3.97;;
25780;SDS011;13626;48.128;11.628;2022-10-31T01:02:28;8.05;;;4.13;;
25780;SDS011;13626;48.128;11.628;2022-10-31T01:04:55;8.05;;;4.10;;
25780;SDS011;13626;48.128;11.628;2022-10-31T01:07:22;8.30;;;4.82;;
25780;SDS011;13626;48.128;11.628;2022-10-31T01:09:49;8.57;;;4.25;;
25780;SDS011;13626;48.128;11.628;2022-10-31T01:12:17;10.73;;;4.90;;
25780;SDS011;13626;48.128;11.628;2022-10-31T01:14:44;9.25;;;4.82;;
25780;SDS011;13626;48.128;11.628;2022-10-31T01:17:12;10.13;;;4.63;;
25780;SDS011;13626;48.128;11.628;2022-10-31T01:19:39;8.48;;;4.55;;
25780;SDS011;13626;48.128;11.628;2022-10-31T01:22:06;11.15;;;4.47;;
25780;SDS011;13626;48.128;11.628;2022-10-31T01:24:34;11.60;;;4.25;;
25780;SDS011;13626;48.128;11.628;2022-10-31T01:27:01;10.93;;;4.68;;
25780;SDS011;13626;48.128;11.628;2022-10-31T01:29:28;6.85;;;4.45;;
25780;SDS011;13626;48.128;11.628;2022-10-31T01:31:55;8.70;;;4.20;;
25780;SDS011;13626;48.128;11.628;2022-10-31T01:34:22;12.13;;;3.97;;
25780;SDS011;13626;48.128;11.628;2022-10-31T01:36:49;10.77;;;4.20;;
25780;SDS011;13626;48.128;11.628;2022-10-31T01:39:17;10.25;;;4.60;;
25780;SDS011;13626;48.128;11.628;2022-10-31T01:41:46;9.63;;;4.18;;
25780;SDS011;13626;48.128;11.628;2022-10-31T01:51:46;10.52;;;3.85;;
25780;SDS011;13626;48.128;11.628;2022-10-31T01:54:15;10.38;;;4.38;;
25780;SDS011;13626;48.128;11.628;2022-10-31T01:56:45;9.43;;;4.22;;
25780;SDS011;13626;48.128;11.628;2022-10-31T01:59:15;8.63;;;3.83;;
25780;SDS011;13626;48.128;11.628;2022-10-31T02:01:44;8.18;;;4.00;;
25780;SDS011;13626;48.128;11.628;2022-10-31T02:04:11;13.57;;;4.65;;
25780;SDS011;13626;48.128;11.628;2022-10-31T02:06:41;11.30;;;4.18;;
25780;SDS011;13626;48.128;11.628;2022-10-31T02:09:10;8.25;;;3.85;;
25780;SDS011;13626;48.128;11.628;2022-10-31T02:11:38;8.25;;;4.30;;
25780;SDS011;13626;48.128;11.628;2022-10-31T02:14:05;8.25;;;4.97;;
25780;SDS011;13626;48.128;11.628;2022-10-31T02:16:32;8.55;;;4.28;;
25780;SDS011;13626;48.128;11.628;2022-10-31T02:18:59;10.23;;;4.10;;
25780;SDS011;13626;48.128;11.628;2022-10-31T02:21:32;12.73;;;4.28;;
25780;SDS011;13626;48.128;11.628;2022-10-31T02:26:54;10.82;;;4.55;;
25780;SDS011;13626;48.128;11.628;2022-10-31T02:29:30;5.80;;;3.28;;
25780;SDS011;13626;48.128;11.628;2022-10-31T02:32:17;9.63;;;4.03;;
25780;SDS011;13626;48.128;11.628;2022-10-31T02:37:44;15.20;;;4.28;;
25780;SDS011;13626;48.128;11.628;2022-10-31T02:40:26;7.40;;;3.88;;
25780;SDS011;13626;48.128;11.628;2022-10-31T02:43:18;10.68;;;4.40;;
25780;SDS011;13626;48.128;11.628;2022-10-31T02:45:44;6.57;;;3.78;;
25780;SDS011;13626;48.128;11.628;2022-10-31T02:48:19;7.53;;;4.22;;
25780;SDS011;13626;48.128;11.628;2022-10-31T02:50:52;9.57;;;4.30;;
25780;SDS011;13626;48.128;11.628;2022-10-31T02:53:19;8.23;;;3.58;;
25780;SDS011;13626;48.128;11.628;2022-10-31T02:55:49;8.85;;;3.80;;
25780;SDS011;13626;48.128;11.628;2022-10-31T02:58:19;10.63;;;3.80;;
25780;SDS011;13626;48.128;11.628;2022-10-31T03:03:33;10.43;;;3.97;;
25780;SDS011;13626;48.128;11.628;2022-10-31T03:08:35;6.82;;;3.45;;
25780;SDS011;13626;48.128;11.628;2022-10-31T03:11:06;7.28;;;4.00;;
25780;SDS011;13626;48.128;11.628;2022-10-31T03:13:47;7.35;;;3.70;;
25780;SDS011;13626;48.128;11.628;2022-10-31T03:16:25;7.50;;;4.00;;
25780;SDS011;13626;48.128;11.628;2022-10-31T03:18:57;9.52;;;4.50;;
25780;SDS011;13626;48.128;11.628;2022-10-31T03:21:27;8.40;;;3.78;;
25780;SDS011;13626;48.128;11.628;2022-10-31T03:23:57;6.85;;;4.28;;
25780;SDS011;13626;48.128;11.628;2022-10-31T03:26:25;6.63;;;3.70;;
25780;SDS011;13626;48.128;11.628;2022-10-31T03:29:03;10.82;;;4.10;;
25780;SDS011;13626;48.128;11.628;2022-10-31T03:32:19;8.90;;;3.63;;
25780;SDS011;13626;48.128;11.628;2022-10-31T03:34:19;6.97;;;3.72;;
25780;SDS011;13626;48.128;11.628;2022-10-31T03:36:47;9.75;;;4.15;;
25780;SDS011;13626;48.128;11.628;2022-10-31T03:39:15;9.25;;;3.95;;
25780;SDS011;13626;48.128;11.628;2022-10-31T03:41:46;9.98;;;3.95;;
25780;SDS011;13626;48.128;11.628;2022-10-31T03:44:14;12.57;;;3.85;;
25780;SDS011;13626;48.128;11.628;2022-10-31T03:46:43;7.68;;;4.10;;
25780;SDS011;13626;48.128;11.628;2022-10-31T03:49:11;6.63;;;3.58;;
25780;SDS011;13626;48.128;11.628;2022-10-31T03:51:55;7.38;;;3.70;;
25780;SDS011;13626;48.128;11.628;2022-10-31T03:54:25;7.53;;;4.07;;
25780;SDS011;13626;48.128;11.628;2022-10-31T03:57:05;8.18;;;3.88;;
25780;SDS011;13626;48.128;11.628;2022-10-31T03:59:37;8.93;;;4.05;;
25780;SDS011;13626;48.128;11.628;2022-10-31T04:02:07;10.57;;;4.10;;
25780;SDS011;13626;48.128;11.628;2022-10-31T04:04:37;9.55;;;3.80;;
25780;SDS011;13626;48.128;11.628;2022-10-31T04:07:05;8.10;;;3.80;;
25780;SDS011;13626;48.128;11.628;2022-10-31T04:09:35;6.10;;;3.60;;
25780;SDS011;13626;48.128;11.628;2022-10-31T04:12:03;7.90;;;3.72;;
25780;SDS011;13626;48.128;11.628;2022-10-31T04:14:32;9.20;;;3.80;;
25780;SDS011;13626;48.128;11.628;2022-10-31T04:17:01;8.98;;;3.80;;
25780;SDS011;13626;48.128;11.628;2022-10-31T04:19:28;7.47;;;3.72;;
25780;SDS011;13626;48.128;11.628;2022-10-31T04:21:55;11.50;;;4.40;;
25780;SDS011;13626;48.128;11.628;2022-10-31T04:24:22;11.45;;;3.60;;
25780;SDS011;13626;48.128;11.628;2022-10-31T04:26:50;6.57;;;3.97;;
25780;SDS011;13626;48.128;11.628;2022-10-31T04:29:17;7.53;;;3.67;;
25780;SDS011;13626;48.128;11.628;2022-10-31T04:31:44;7.20;;;3.55;;
25780;SDS011;13626;48.128;11.628;2022-10-31T04:34:11;8.18;;;3.85;;
25780;SDS011;13626;48.128;11.628;2022-10-31T04:36:38;11.48;;;3.80;;
25780;SDS011;13626;48.128;11.628;2022-10-31T04:39:05;9.35;;;3.72;;
25780;SDS011;13626;48.128;11.628;2022-10-31T04:41:32;8.75;;;4.20;;
25780;SDS011;13626;48.128;11.628;2022-10-31T04:44:00;11.60;;;3.40;;
25780;SDS011;13626;48.128;11.628;2022-10-31T04:46:27;6.50;;;3.67;;
25780;SDS011;13626;48.128;11.628;2022-10-31T04:48:54;9.55;;;3.50;;
25780;SDS011;13626;48.128;11.628;2022-10-31T04:51:21;8.82;;;3.60;;
25780;SDS011;13626;48.128;11.628;2022-10-31T04:53:48;9.45;;;3.83;;
25780;SDS011;13626;48.128;11.628;2022-10-31T04:56:15;5.78;;;3.50;;
25780;SDS011;13626;48.128;11.628;2022-10-31T04:58:42;11.23;;;4.05;;
25780;SDS011;13626;48.128;11.628;2022-10-31T05:01:09;8.95;;;4.22;;
25780;SDS011;13626;48.128;11.628;2022-10-31T05:03:37;5.53;;;3.47;;
25780;SDS011;13626;48.128;11.628;2022-10-31T05:06:06;7.97;;;3.63;;
25780;SDS011;13626;48.128;11.628;2022-10-31T05:08:33;7.57;;;3.47;;
25780;SDS011;13626;48.128;11.628;2022-10-31T05:11:00;5.53;;;3.17;;
25780;SDS011;13626;48.128;11.628;2022-10-31T05:13:30;6.30;;;3.40;;
25780;SDS011;13626;48.128;11.628;2022-10-31T05:15:57;7.70;;;3.70;;
25780;SDS011;13626;48.128;11.628;2022-10-31T05:18:24;9.57;;;3.90;;
25780;SDS011;13626;48.128;11.628;2022-10-31T05:20:51;8.75;;;3.65;;
25780;SDS011;13626;48.128;11.628;2022-10-31T05:23:18;8.10;;;3.67;;
25780;SDS011;13626;48.128;11.628;2022-10-31T05:25:45;7.90;;;3.75;;
25780;SDS011;13626;48.128;11.628;2022-10-31T05:28:12;7.90;;;4.18;;
25780;SDS011;13626;48.128;11.628;2022-10-31T05:30:40;6.82;;;3.30;;
25780;SDS011;13626;48.128;11.628;2022-10-31T05:33:07;9.63;;;4.05;;
25780;SDS011;13626;48.128;11.628;2022-10-31T05:35:34;8.77;;;3.80;;
25780;SDS011;13626;48.128;11.628;2022-10-31T05:38:01;10.38;;;3.65;;
25780;SDS011;13626;48.128;11.628;2022-10-31T05:40:29;10.43;;;4.03;;
25780;SDS011;13626;48.128;11.628;2022-10-31T05:42:56;6.80;;;3.53;;
25780;SDS011;13626;48.128;11.628;2022-10-31T05:45:26;9.00;;;4.50;;
25780;SDS011;13626;48.128;11.628;2022-10-31T05:47:57;9.48;;;3.75;;
25780;SDS011;13626;48.128;11.628;2022-10-31T05:50:26;6.25;;;3.40;;
25780;SDS011;13626;48.128;11.628;2022-10-31T05:52:58;10.18;;;3.72;;
25780;SDS011;13626;48.128;11.628;2022-10-31T05:55:25;6.63;;;3.53;;
25780;SDS011;13626;48.128;11.628;2022-10-31T05:57:53;6.85;;;3.30;;
25780;SDS011;13626;48.128;11.628;2022-10-31T06:00:21;8.55;;;3.90;;
25780;SDS011;13626;48.128;11.628;2022-10-31T06:02:48;10.07;;;3.72;;
25780;SDS011;13626;48.128;11.628;2022-10-31T06:05:15;6.07;;;3.40;;
25780;SDS011;13626;48.128;11.628;2022-10-31T06:07:42;10.38;;;4.20;;
25780;SDS011;13626;48.128;11.628;2022-10-31T06:10:10;10.85;;;4.78;;
25780;SDS011;13626;48.128;11.628;2022-10-31T06:12:37;10.52;;;3.78;;
25780;SDS011;13626;48.128;11.628;2022-10-31T06:15:05;9.55;;;3.35;;
25780;SDS011;13626;48.128;11.628;2022-10-31T06:17:35;7.60;;;3.70;;
25780;SDS011;13626;48.128;11.628;2022-10-31T06:20:03;12.43;;;4.07;;
25780;SDS011;13626;48.128;11.628;2022-10-31T06:22:30;5.75;;;3.33;;
25780;SDS011;13626;48.128;11.628;2022-10-31T06:24:57;8.45;;;3.63;;
25780;SDS011;13626;48.128;11.628;2022-10-31T06:27:25;7.07;;;3.45;;
25780;SDS011;13626;48.128;11.628;2022-10-31T06:29:52;6.93;;;3.35;;
25780;SDS011;13626;48.128;11.628;2022-10-31T06:32:19;5.93;;;3.22;;
25780;SDS011;13626;48.128;11.628;2022-10-31T06:34:47;8.55;;;3.30;;
25780;SDS011;13626;48.128;11.628;2022-10-31T06:37:14;7.18;;;3.40;;
25780;SDS011;13626;48.128;11.628;2022-10-31T06:39:41;6.72;;;3.63;;
25780;SDS011;13626;48.128;11.628;2022-10-31T06:42:08;8.13;;;3.92;;
25780;SDS011;13626;48.128;11.628;2022-10-31T06:44:35;8.00;;;3.22;;
25780;SDS011;13626;48.128;11.628;2022-10-31T06:47:02;8.32;;;3.40;;
25780;SDS011;13626;48.128;11.628;2022-10-31T06:49:30;8.07;;;3.38;;
25780;SDS011;13626;48.128;11.628;2022-10-31T06:51:57;9.48;;;3.97;;
25780;SDS011;13626;48.128;11.628;2022-10-31T06:54:24;6.68;;;3.45;;
25780;SDS011;13626;48.128;11.628;2022-10-31T06:56:52;9.30;;;3.17;;
25780;SDS011;13626;48.128;11.628;2022-10-31T06:59:19;11.25;;;3.42;;
25780;SDS011;13626;48.128;11.628;2022-10-31T07:01:46;10.02;;;3.60;;
25780;SDS011;13626;48.128;11.628;2022-10-31T07:04:13;6.90;;;3.35;;
25780;SDS011;13626;48.128;11.628;2022-10-31T07:06:40;6.50;;;3.85;;
25780;SDS011;13626;48.128;11.628;2022-10-31T07:09:08;11.30;;;3.03;;
25780;SDS011;13626;48.128;11.628;2022-10-31T07:11:35;6.50;;;2.80;;
25780;SDS011;13626;48.128;11.628;2022-10-31T07:14:02;7.57;;;3.15;;
25780;SDS011;13626;48.128;11.628;2022-10-31T07:16:29;8.13;;;3.17;;
25780;SDS011;13626;48.128;11.628;2022-10-31T07:18:56;7.75;;;3.65;;
25780;SDS011;13626;48.128;11.628;2022-10-31T07:21:23;6.88;;;3.47;;
25780;SDS011;13626;48.128;11.628;2022-10-31T07:23:50;9.10;;;3.20;;
25780;SDS011;13626;48.128;11.628;2022-10-31T07:26:17;6.22;;;2.97;;
25780;SDS011;13626;48.128;11.628;2022-10-31T07:28:45;7.72;;;3.25;;
25780;SDS011;13626;48.128;11.628;2022-10-31T07:31:13;8.93;;;3.97;;
25780;SDS011;13626;48.128;11.628;2022-10-31T07:33:40;10.35;;;3.90;;
25780;SDS011;13626;48.128;11.628;2022-10-31T07:36:07;6.15;;;3.30;;
25780;SDS011;13626;48.128;11.628;2022-10-31T07:38:34;9.90;;;3.58;;
25780;SDS011;13626;48.128;11.628;2022-10-31T07:41:02;7.88;;;3.15;;
25780;SDS011;13626;48.128;11.628;2022-10-31T07:43:29;9.55;;;4.07;;
25780;SDS011;13626;48.128;11.628;2022-10-31T07:45:56;6.40;;;3.33;;
25780;SDS011;13626;48.128;11.628;2022-10-31T07:48:23;10.20;;;3.05;;
25780;SDS011;13626;48.128;11.628;2022-10-31T07:50:50;6.85;;;2.97;;
25780;SDS011;13626;48.128;11.628;2022-10-31T07:53:17;7.28;;;3.25;;
25780;SDS011;13626;48.128;11.628;2022-10-31T07:55:44;11.85;;;3.47;;
25780;SDS011;13626;48.128;11.628;2022-10-31T07:58:13;9.57;;;3.38;;
25780;SDS011;13626;48.128;11.628;2022-10-31T08:00:41;12.98;;;3.65;;
25780;SDS011;13626;48.128;11.628;2022-10-31T08:03:10;10.05;;;3.40;;
25780;SDS011;13626;48.128;11.628;2022-10-31T08:05:37;8.25;;;3.80;;
25780;SDS011;13626;48.128;11.628;2022-10-31T08:08:07;8.60;;;3.50;;
25780;SDS011;13626;48.128;11.628;2022-10-31T08:10:35;9.00;;;3.30;;
25780;SDS011;13626;48.128;11.628;2022-10-31T08:13:03;7.50;;;3.50;;
25780;SDS011;13626;48.128;11.628;2022-10-31T08:15:31;9.55;;;3.58;;
25780;SDS011;13626;48.128;11.628;2022-10-31T08:18:00;12.55;;;4.45;;
25780;SDS011;13626;48.128;11.628;2022-10-31T08:20:28;8.82;;;4.20;;
25780;SDS011;13626;48.128;11.628;2022-10-31T08:23:00;10.02;;;4.38;;
25780;SDS011;13626;48.128;11.628;2022-10-31T08:25:28;10.35;;;4.28;;
25780;SDS011;13626;48.128;11.628;2022-10-31T08:30:30;14.50;;;4.40;;
25780;SDS011;13626;48.128;11.628;2022-10-31T08:33:02;16.83;;;4.40;;
25780;SDS011;13626;48.128;11.628;2022-10-31T08:35:30;12.82;;;4.95;;
25780;SDS011;13626;48.128;11.628;2022-10-31T08:37:58;14.30;;;4.88;;
25780;SDS011;13626;48.128;11.628;2022-10-31T08:40:27;15.10;;;6.28;;
25780;SDS011;13626;48.128;11.628;2022-10-31T08:42:55;11.77;;;5.50;;
25780;SDS011;13626;48.128;11.628;2022-10-31T08:45:22;13.18;;;6.10;;
25780;SDS011;13626;48.128;11.628;2022-10-31T08:47:50;11.35;;;5.22;;
25780;SDS011;13626;48.128;11.628;2022-10-31T08:50:17;12.18;;;5.28;;
25780;SDS011;13626;48.128;11.628;2022-10-31T08:52:45;12.07;;;5.85;;
25780;SDS011;13626;48.128;11.628;2022-10-31T08:55:29;14.32;;;5.57;;
25780;SDS011;13626;48.128;11.628;2022-10-31T08:57:57;11.88;;;5.03;;
25780;SDS011;13626;48.128;11.628;2022-10-31T09:00:25;10.25;;;5.47;;
25780;SDS011;13626;48.128;11.628;2022-10-31T09:02:56;16.08;;;5.65;;
25780;SDS011;13626;48.128;11.628;2022-10-31T09:05:24;9.27;;;4.88;;
25780;SDS011;13626;48.128;11.628;2022-10-31T09:07:55;9.57;;;5.00;;
25780;SDS011;13626;48.128;11.628;2022-10-31T09:10:24;8.73;;;5.40;;
25780;SDS011;13626;48.128;11.628;2022-10-31T09:12:58;11.00;;;4.90;;
25780;SDS011;13626;48.128;11.628;2022-10-31T09:15:25;14.30;;;5.55;;
25780;SDS011;13626;48.128;11.628;2022-10-31T09:17:53;9.75;;;4.63;;
25780;SDS011;13626;48.128;11.628;2022-10-31T09:20:21;11.25;;;4.80;;
25780;SDS011;13626;48.128;11.628;2022-10-31T09:22:54;11.20;;;4.43;;
25780;SDS011;13626;48.128;11.628;2022-10-31T09:25:21;11.13;;;4.60;;
25780;SDS011;13626;48.128;11.628;2022-10-31T09:27:49;11.05;;;4.88;;
25780;SDS011;13626;48.128;11.628;2022-10-31T09:30:16;8.73;;;4.43;;
25780;SDS011;13626;48.128;11.628;2022-10-31T09:32:44;10.18;;;4.43;;
25780;SDS011;13626;48.128;11.628;2022-10-31T09:35:11;11.45;;;4.68;;
25780;SDS011;13626;48.128;11.628;2022-10-31T09:37:38;10.30;;;4.18;;
25780;SDS011;13626;48.128;11.628;2022-10-31T09:40:05;10.65;;;4.47;;
25780;SDS011;13626;48.128;11.628;2022-10-31T09:47:59;7.72;;;3.75;;
25780;SDS011;13626;48.128;11.628;2022-10-31T09:50:41;7.88;;;3.85;;
25780;SDS011;13626;48.128;11.628;2022-10-31T09:53:22;7.03;;;3.35;;
25780;SDS011;13626;48.128;11.628;2022-10-31T09:55:50;11.65;;;4.18;;
25780;SDS011;13626;48.128;11.628;2022-10-31T09:58:28;11.18;;;3.63;;
25780;SDS011;13626;48.128;11.628;2022-10-31T10:01:00;8.48;;;3.30;;
25780;SDS011;13626;48.128;11.628;2022-10-31T10:06:04;9.55;;;3.08;;
25780;SDS011;13626;48.128;11.628;2022-10-31T10:08:33;8.60;;;3.40;;
25780;SDS011;13626;48.128;11.628;2022-10-31T10:13:37;9.90;;;3.45;;
25780;SDS011;13626;48.128;11.628;2022-10-31T10:16:24;7.35;;;3.08;;
25780;SDS011;13626;48.128;11.628;2022-10-31T10:27:39;8.93;;;3.40;;
25780;SDS011;13626;48.128;11.628;2022-10-31T10:29:32;6.57;;;2.80;;
25780;SDS011;13626;48.128;11.628;2022-10-31T10:32:01;7.78;;;3.03;;
25780;SDS011;13626;48.128;11.628;2022-10-31T10:34:31;9.65;;;2.95;;
25780;SDS011;13626;48.128;11.628;2022-10-31T10:37:01;11.48;;;3.20;;
25780;SDS011;13626;48.128;11.628;2022-10-31T10:39:40;6.38;;;2.80;;
25780;SDS011;13626;48.128;11.628;2022-10-31T10:42:12;7.53;;;2.65;;
25780;SDS011;13626;48.128;11.628;2022-10-31T10:44:58;5.75;;;3.00;;
25780;SDS011;13626;48.128;11.628;2022-10-31T10:47:47;8.80;;;2.95;;
25780;SDS011;13626;48.128;11.628;2022-10-31T10:50:18;10.45;;;2.95;;
25780;SDS011;13626;48.128;11.628;2022-10-31T10:57:56;9.60;;;3.20;;
25780;SDS011;13626;48.128;11.628;2022-10-31T11:02:53;6.60;;;2.65;;
25780;SDS011;13626;48.128;11.628;2022-10-31T11:05:23;11.68;;;2.72;;
25780;SDS011;13626;48.128;11.628;2022-10-31T11:07:51;11.95;;;2.60;;
25780;SDS011;13626;48.128;11.628;2022-10-31T11:10:18;8.55;;;2.90;;
25780;SDS011;13626;48.128;11.628;2022-10-31T11:12:56;10.55;;;3.15;;
25780;SDS011;13626;48.128;11.628;2022-10-31T11:15:25;7.97;;;3.13;;
25780;SDS011;13626;48.128;11.628;2022-10-31T11:17:54;6.97;;;3.17;;
25780;SDS011;13626;48.128;11.628;2022-10-31T11:22:49;13.15;;;3.22;;
25780;SDS011;13626;48.128;11.628;2022-10-31T11:27:46;8.13;;;2.63;;
25780;SDS011;13626;48.128;11.628;2022-10-31T11:30:13;10.50;;;2.97;;
25780;SDS011;13626;48.128;11.628;2022-10-31T11:32:45;12.23;;;2.78;;
25780;SDS011;13626;48.128;11.628;2022-10-31T11:35:15;9.52;;;2.75;;
25780;SDS011;13626;48.128;11.628;2022-10-31T11:37:44;8.57;;;2.80;;
25780;SDS011;13626;48.128;11.628;2022-10-31T11:40:16;7.78;;;3.22;;
25780;SDS011;13626;48.128;11.628;2022-10-31T11:42:43;8.45;;;2.75;;
25780;SDS011;13626;48.128;11.628;2022-10-31T11:47:42;9.60;;;3.05;;
25780;SDS011;13626;48.128;11.628;2022-10-31T11:50:10;9.02;;;2.70;;
25780;SDS011;13626;48.128;11.628;2022-10-31T11:52:39;9.80;;;3.28;;
25780;SDS011;13626;48.128;11.628;2022-10-31T11:57:49;7.60;;;3.05;;
25780;SDS011;13626;48.128;11.628;2022-10-31T12:00:20;12.68;;;3.75;;
25780;SDS011;13626;48.128;11.628;2022-10-31T12:02:48;12.35;;;2.88;;
25780;SDS011;13626;48.128;11.628;2022-10-31T12:05:19;10.45;;;3.15;;
25780;SDS011;13626;48.128;11.628;2022-10-31T12:07:48;10.63;;;3.00;;
25780;SDS011;13626;48.128;11.628;2022-10-31T12:10:15;7.38;;;3.15;;
25780;SDS011;13626;48.128;11.628;2022-10-31T12:12:49;8.10;;;3.63;;
25780;SDS011;13626;48.128;11.628;2022-10-31T12:43:56;14.13;;;3.45;;
25780;SDS011;13626;48.128;11.628;2022-10-31T12:46:25;7.20;;;3.13;;
25780;SDS011;13626;48.128;11.628;2022-10-31T12:51:43;11.32;;;3.88;;
25780;SDS011;13626;48.128;11.628;2022-10-31T12:57:01;8.15;;;3.60;;
25780;SDS011;13626;48.128;11.628;2022-10-31T12:59:45;9.23;;;3.45;;
25780;SDS011;13626;48.128;11.628;2022-10-31T13:02:57;7.75;;;3.22;;
25780;SDS011;13626;48.128;11.628;2022-10-31T13:05:05;9.00;;;3.03;;
25780;SDS011;13626;48.128;11.628;2022-10-31T13:07:41;10.85;;;3.95;;
25780;SDS011;13626;48.128;11.628;2022-10-31T13:12:39;14.45;;;3.72;;
25780;SDS011;13626;48.128;11.628;2022-10-31T13:15:24;7.90;;;4.15;;
25780;SDS011;13626;48.128;11.628;2022-10-31T13:17:54;13.45;;;4.13;;
25780;SDS011;13626;48.128;11.628;2022-10-31T13:20:24;8.27;;;3.13;;
25780;SDS011;13626;48.128;11.628;2022-10-31T13:22:53;9.73;;;3.55;;
25780;SDS011;13626;48.128;11.628;2022-10-31T13:25:24;10.52;;;3.55;;
25780;SDS011;13626;48.128;11.628;2022-10-31T13:27:56;7.30;;;3.35;;
25780;SDS011;13626;48.128;11.628;2022-10-31T13:30:32;8.07;;;3.55;;
25780;SDS011;13626;48.128;11.628;2022-10-31T13:33:04;9.73;;;3.25;;
25780;SDS011;13626;48.128;11.628;2022-10-31T13:35:37;10.98;;;3.85;;
25780;SDS011;13626;48.128;11.628;2022-10-31T13:45:47;11.25;;;3.92;;
25780;SDS011;13626;48.128;11.628;2022-10-31T13:50:43;15.32;;;4.07;;
25780;SDS011;13626;48.128;11.628;2022-10-31T13:53:21;9.25;;;4.38;;
25780;SDS011;13626;48.128;11.628;2022-10-31T13:55:50;9.48;;;3.72;;
25780;SDS011;13626;48.128;11.628;2022-10-31T13:58:29;12.02;;;3.47;;
25780;SDS011;13626;48.128;11.628;2022-10-31T14:03:31;13.23;;;3.80;;
25780;SDS011;13626;48.128;11.628;2022-10-31T14:06:20;8.07;;;3.90;;
25780;SDS011;13626;48.128;11.628;2022-10-31T14:08:49;9.23;;;3.95;;
25780;SDS011;13626;48.128;11.628;2022-10-31T14:11:23;11.68;;;3.75;;
25780;SDS011;13626;48.128;11.628;2022-10-31T14:13:51;9.25;;;3.42;;
25780;SDS011;13626;48.128;11.628;2022-10-31T14:16:22;9.23;;;3.58;;
25780;SDS011;13626;48.128;11.628;2022-10-31T14:21:47;8.40;;;3.58;;
25780;SDS011;13626;48.128;11.628;2022-10-31T14:26:51;9.57;;;3.45;;
25780;SDS011;13626;48.128;11.628;2022-10-31T14:31:55;11.68;;;3.72;;
25780;SDS011;13626;48.128;11.628;2022-10-31T14:34:26;11.63;;;4.20;;
25780;SDS011;13626;48.128;11.628;2022-10-31T14:44:58;14.45;;;4.25;;
25780;SDS011;13626;48.128;11.628;2022-10-31T14:55:14;13.57;;;5.05;;
25780;SDS011;13626;48.128;11.628;2022-10-31T14:57:44;10.95;;;5.15;;
25780;SDS011;13626;48.128;11.628;2022-10-31T15:00:17;14.18;;;5.38;;
25780;SDS011;13626;48.128;11.628;2022-10-31T15:05:12;8.63;;;5.20;;
25780;SDS011;13626;48.128;11.628;2022-10-31T15:07:50;18.35;;;6.57;;
25780;SDS011;13626;48.128;11.628;2022-10-31T15:10:22;14.52;;;6.25;;
25780;SDS011;13626;48.128;11.628;2022-10-31T15:12:50;14.15;;;6.70;;
25780;SDS011;13626;48.128;11.628;2022-10-31T15:15:18;14.18;;;6.82;;
25780;SDS011;13626;48.128;11.628;2022-10-31T15:17:51;12.73;;;7.07;;
25780;SDS011;13626;48.128;11.628;2022-10-31T15:20:20;17.70;;;7.57;;
25780;SDS011;13626;48.128;11.628;2022-10-31T15:22:49;15.88;;;7.35;;
25780;SDS011;13626;48.128;11.628;2022-10-31T15:25:17;19.27;;;7.07;;
25780;SDS011;13626;48.128;11.628;2022-10-31T15:27:45;18.33;;;7.40;;
25780;SDS011;13626;48.128;11.628;2022-10-31T15:30:17;16.77;;;7.95;;
25780;SDS011;13626;48.128;11.628;2022-10-31T15:32:45;13.10;;;8.10;;
25780;SDS011;13626;48.128;11.628;2022-10-31T15:35:27;16.33;;;8.13;;
25780;SDS011;13626;48.128;11.628;2022-10-31T15:37:54;18.77;;;8.15;;
25780;SDS011;13626;48.128;11.628;2022-10-31T15:40:23;15.18;;;9.07;;
25780;SDS011;13626;48.128;11.628;2022-10-31T15:42:53;20.85;;;9.18;;
25780;SDS011;13626;48.128;11.628;2022-10-31T15:45:23;19.30;;;8.98;;
25780;SDS011;13626;48.128;11.628;2022-10-31T15:47:54;19.20;;;9.27;;
25780;SDS011;13626;48.128;11.628;2022-10-31T15:50:28;20.08;;;8.57;;
25780;SDS011;13626;48.128;11.628;2022-10-31T15:52:57;20.02;;;9.13;;
25780;SDS011;13626;48.128;11.628;2022-10-31T15:55:26;17.83;;;8.80;;
25780;SDS011;13626;48.128;11.628;2022-10-31T15:57:56;18.40;;;8.00;;
25780;SDS011;13626;48.128;11.628;2022-10-31T16:00:25;17.00;;;8.20;;
25780;SDS011;13626;48.128;11.628;2022-10-31T16:05:37;16.67;;;7.28;;
25780;SDS011;13626;48.128;11.628;2022-10-31T16:08:20;15.32;;;7.53;;
